Prince Of Seas — A8JI5 — position and weather

sailwx.info

Track history (hours):
 
Tides and Currents Weather Stations Pressure Air Temp Water Temp Dewpoint Dewpoint Depression Visibility Wind Speed Wind Dir Waves Ship Positions

Prince Of Seas

Last reported at 2016-Jul-24 21:23 UTC. Time now 2016-Jul-24 22:24 UTC.
Position N 05°18' W 004°01'.

Length 131 m; beam 19 m.

Type: Ship. MMSI: 636091098.

Date/timePositionNaut miles runAvg speedWind from/ knotsBaromVisibWave heightAir tempDewpointWater temp
2016-Jul-24 21:23N 05°18' W 004°01'0 0.0
2016-Jul-24 20:17N 05°18' W 004°01'0 0.0
2016-Jul-24 19:11N 05°18' W 004°01'0 0.0
2016-Jul-24 15:17N 05°18' W 004°01'0 0.0
2016-Jul-24 08:29N 05°18' W 004°01'0 0.0
2016-Jul-24 06:23N 05°18' W 004°01'1 0.3
2016-Jul-24 02:27N 05°18' W 004°02'0 0.1
2016-Jul-24 01:15N 05°18' W 004°02'0 0.0
2016-Jul-23 22:06N 05°18' W 004°02'0 0.1
2016-Jul-23 21:33N 05°18' W 004°02'7 4.7
2016-Jul-23 20:09N 05°12' W 003°60'3 5.3
2016-Jul-23 19:33N 05°13' W 004°02'1 0.5
2016-Jul-23 17:14N 05°14' W 004°03'0 0.0
2016-Jul-23 11:32N 05°14' W 004°03'0 0.0
2016-Jul-23 09:14N 05°14' W 004°03'0 0.0
2016-Jul-23 03:05N 05°14' W 004°03'0 0.0
2016-Jul-22 17:08N 05°14' W 004°03'0 0.0
2016-Jul-22 15:20N 05°14' W 004°03'0 0.0
2016-Jul-22 03:20N 05°14' W 004°03'0 0.0
2016-Jul-22 02:08N 05°14' W 004°03'0 0.0
2016-Jul-22 01:32N 05°14' W 004°03'0 0.0
2016-Jul-22 00:32N 05°14' W 004°03'0 0.0
2016-Jul-21 20:20N 05°14' W 004°03'0 0.0
2016-Jul-21 08:26N 05°14' W 004°03'0 0.0
2016-Jul-20 18:26N 05°14' W 004°03'0 0.0
2016-Jul-20 06:05N 05°14' W 004°03'0 0.0
2016-Jul-20 05:23N 05°14' W 004°03'0 0.0
2016-Jul-20 04:23N 05°14' W 004°03'0 0.0
2016-Jul-20 03:23N 05°14' W 004°03'0 0.0
2016-Jul-20 01:29N 05°14' W 004°03'0 0.0
2016-Jul-20 00:11N 05°14' W 004°03'0 0.0
2016-Jul-19 23:29N 05°14' W 004°03'0 0.0
2016-Jul-19 22:11N 05°14' W 004°03'0 0.0
2016-Jul-19 19:05N 05°14' W 004°03'0 0.0
2016-Jul-19 18:29N 05°14' W 004°03'0 0.0
2016-Jul-19 16:23N 05°14' W 004°03'0 0.0
2016-Jul-19 15:29N 05°14' W 004°03'0 0.0
2016-Jul-19 12:23N 05°14' W 004°03'0 0.0
2016-Jul-19 10:17N 05°14' W 004°03'0 0.0
2016-Jul-19 09:05N 05°14' W 004°03'0 0.0
2016-Jul-19 07:23N 05°14' W 004°03'0 0.0
2016-Jul-19 04:29N 05°14' W 004°03'0 0.0
2016-Jul-19 03:29N 05°14' W 004°03'0 0.0
2016-Jul-19 00:29N 05°14' W 004°03'0 0.0
2016-Jul-18 20:14N 05°14' W 004°03'0 0.0
2016-Jul-18 19:14N 05°14' W 004°03'0 0.0
2016-Jul-18 18:32N 05°14' W 004°03'0 0.0
2016-Jul-18 17:32N 05°14' W 004°03'0 0.0
2016-Jul-18 15:20N 05°14' W 004°03'0 0.0
2016-Jul-18 14:14N 05°14' W 004°03'0 0.0
2016-Jul-18 13:26N 05°14' W 004°03'0 0.0
2016-Jul-18 12:26N 05°14' W 004°03'0 0.0
2016-Jul-18 10:27N 05°14' W 004°03'  
Track history (hours):
 
Tides and Currents Weather Stations Pressure Air Temp Water Temp Dewpoint Dewpoint Depression Visibility Wind Speed Wind Dir Waves Ship Positions

Prince Of Seas

Last reported at 2016-Jul-24 21:23 UTC. Time now 2016-Jul-24 22:24 UTC.
Position N 05°18' W 004°01'.

Length 131 m; beam 19 m.

Type: Ship. MMSI: 636091098.

Date/timePositionNaut miles runAvg speedWind from/ knotsBaromVisibWave heightAir tempDewpointWater temp
2016-Jul-24 21:23N 05°18' W 004°01'0 0.0
2016-Jul-24 20:17N 05°18' W 004°01'0 0.0
2016-Jul-24 19:11N 05°18' W 004°01'0 0.0
2016-Jul-24 15:17N 05°18' W 004°01'0 0.0
2016-Jul-24 08:29N 05°18' W 004°01'0 0.0
2016-Jul-24 06:23N 05°18' W 004°01'1 0.3
2016-Jul-24 02:27N 05°18' W 004°02'0 0.1
2016-Jul-24 01:15N 05°18' W 004°02'0 0.0
2016-Jul-23 22:06N 05°18' W 004°02'0 0.1
2016-Jul-23 21:33N 05°18' W 004°02'7 4.7
2016-Jul-23 20:09N 05°12' W 003°60'3 5.3
2016-Jul-23 19:33N 05°13' W 004°02'1 0.5
2016-Jul-23 17:14N 05°14' W 004°03'0 0.0
2016-Jul-23 11:32N 05°14' W 004°03'0 0.0
2016-Jul-23 09:14N 05°14' W 004°03'0 0.0
2016-Jul-23 03:05N 05°14' W 004°03'0 0.0
2016-Jul-22 17:08N 05°14' W 004°03'0 0.0
2016-Jul-22 15:20N 05°14' W 004°03'0 0.0
2016-Jul-22 03:20N 05°14' W 004°03'0 0.0
2016-Jul-22 02:08N 05°14' W 004°03'0 0.0
2016-Jul-22 01:32N 05°14' W 004°03'0 0.0
2016-Jul-22 00:32N 05°14' W 004°03'0 0.0
2016-Jul-21 20:20N 05°14' W 004°03'0 0.0
2016-Jul-21 08:26N 05°14' W 004°03'0 0.0
2016-Jul-20 18:26N 05°14' W 004°03'0 0.0
2016-Jul-20 06:05N 05°14' W 004°03'0 0.0
2016-Jul-20 05:23N 05°14' W 004°03'0 0.0
2016-Jul-20 04:23N 05°14' W 004°03'0 0.0
2016-Jul-20 03:23N 05°14' W 004°03'0 0.0
2016-Jul-20 01:29N 05°14' W 004°03'0 0.0
2016-Jul-20 00:11N 05°14' W 004°03'0 0.0
2016-Jul-19 23:29N 05°14' W 004°03'0 0.0
2016-Jul-19 22:11N 05°14' W 004°03'0 0.0
2016-Jul-19 19:05N 05°14' W 004°03'0 0.0
2016-Jul-19 18:29N 05°14' W 004°03'0 0.0
2016-Jul-19 16:23N 05°14' W 004°03'0 0.0
2016-Jul-19 15:29N 05°14' W 004°03'0 0.0
2016-Jul-19 12:23N 05°14' W 004°03'0 0.0
2016-Jul-19 10:17N 05°14' W 004°03'0 0.0
2016-Jul-19 09:05N 05°14' W 004°03'0 0.0
2016-Jul-19 07:23N 05°14' W 004°03'0 0.0
2016-Jul-19 04:29N 05°14' W 004°03'0 0.0
2016-Jul-19 03:29N 05°14' W 004°03'0 0.0
2016-Jul-19 00:29N 05°14' W 004°03'0 0.0
2016-Jul-18 20:14N 05°14' W 004°03'0 0.0
2016-Jul-18 19:14N 05°14' W 004°03'0 0.0
2016-Jul-18 18:32N 05°14' W 004°03'0 0.0
2016-Jul-18 17:32N 05°14' W 004°03'0 0.0
2016-Jul-18 15:20N 05°14' W 004°03'0 0.0
2016-Jul-18 14:14N 05°14' W 004°03'0 0.0
2016-Jul-18 13:26N 05°14' W 004°03'0 0.0
2016-Jul-18 12:26N 05°14' W 004°03'0 0.0
2016-Jul-18 10:27N 05°14' W 004°03'  

Dump ship's entire track history